sensor_id;sensor_type;location;lat;lon;timestamp;temperature;humidity
5711;DHT22;61291;52.524;13.422;2024-03-23T00:53:59;8.80;99.90
5711;DHT22;61291;52.524;13.422;2024-03-23T00:56:25;8.80;99.90
5711;DHT22;61291;52.524;13.422;2024-03-23T00:58:50;8.80;99.90
5711;DHT22;61291;52.524;13.422;2024-03-23T01:01:16;8.80;99.90
5711;DHT22;61291;52.524;13.422;2024-03-23T01:03:41;8.80;99.90
5711;DHT22;61291;52.524;13.422;2024-03-23T01:06:07;8.80;99.90
5711;DHT22;61291;52.524;13.422;2024-03-23T01:08:32;8.70;99.90
5711;DHT22;61291;52.524;13.422;2024-03-23T01:10:59;8.70;99.90
5711;DHT22;61291;52.524;13.422;2024-03-23T01:13:26;8.50;99.90
5711;DHT22;61291;52.524;13.422;2024-03-23T01:15:52;8.60;99.90
5711;DHT22;61291;52.524;13.422;2024-03-23T01:18:18;8.60;99.90
5711;DHT22;61291;52.524;13.422;2024-03-23T01:20:44;8.60;99.90
5711;DHT22;61291;52.524;13.422;2024-03-23T01:23:10;8.50;99.90
5711;DHT22;61291;52.524;13.422;2024-03-23T01:25:35;8.50;99.90
5711;DHT22;61291;52.524;13.422;2024-03-23T01:28:01;8.50;99.90
5711;DHT22;61291;52.524;13.422;2024-03-23T01:30:26;8.60;99.90
5711;DHT22;61291;52.524;13.422;2024-03-23T01:32:52;8.50;99.90
5711;DHT22;61291;52.524;13.422;2024-03-23T01:35:17;8.50;99.90
5711;DHT22;61291;52.524;13.422;2024-03-23T01:37:43;8.50;99.90
5711;DHT22;61291;52.524;13.422;2024-03-23T01:40:09;8.60;99.90
5711;DHT22;61291;52.524;13.422;2024-03-23T01:42:34;8.50;99.90
5711;DHT22;61291;52.524;13.422;2024-03-23T01:45:00;8.60;99.90
5711;DHT22;61291;52.524;13.422;2024-03-23T01:47:25;8.50;99.90
5711;DHT22;61291;52.524;13.422;2024-03-23T01:49:51;8.50;99.90
5711;DHT22;61291;52.524;13.422;2024-03-23T01:52:17;8.50;99.90
5711;DHT22;61291;52.524;13.422;2024-03-23T01:54:43;8.50;99.90
5711;DHT22;61291;52.524;13.422;2024-03-23T01:57:10;8.50;99.90
5711;DHT22;61291;52.524;13.422;2024-03-23T01:59:35;8.50;99.90
5711;DHT22;61291;52.524;13.422;2024-03-23T02:02:01;8.50;99.90
5711;DHT22;61291;52.524;13.422;2024-03-23T02:04:26;8.50;99.90
5711;DHT22;61291;52.524;13.422;2024-03-23T02:06:52;8.50;99.90
5711;DHT22;61291;52.524;13.422;2024-03-23T02:09:17;8.60;99.90
5711;DHT22;61291;52.524;13.422;2024-03-23T02:11:43;8.60;99.90
5711;DHT22;61291;52.524;13.422;2024-03-23T02:14:08;8.60;99.90
5711;DHT22;61291;52.524;13.422;2024-03-23T02:16:34;8.60;99.90
5711;DHT22;61291;52.524;13.422;2024-03-23T02:22:22;8.60;99.90
5711;DHT22;61291;52.524;13.422;2024-03-23T02:24:47;8.60;99.90
5711;DHT22;61291;52.524;13.422;2024-03-23T02:27:13;8.60;99.90
5711;DHT22;61291;52.524;13.422;2024-03-23T02:29:38;8.60;99.90
5711;DHT22;61291;52.524;13.422;2024-03-23T02:32:04;8.50;99.90
5711;DHT22;61291;52.524;13.422;2024-03-23T02:34:50;8.70;99.90
5711;DHT22;61291;52.524;13.422;2024-03-23T02:37:16;8.60;99.90
5711;DHT22;61291;52.524;13.422;2024-03-23T02:39:43;8.70;99.90
5711;DHT22;61291;52.524;13.422;2024-03-23T02:42:10;8.70;99.90
5711;DHT22;61291;52.524;13.422;2024-03-23T02:44:35;8.70;99.90
5711;DHT22;61291;52.524;13.422;2024-03-23T02:47:02;8.70;99.90
5711;DHT22;61291;52.524;13.422;2024-03-23T02:49:29;8.60;99.90
5711;DHT22;61291;52.524;13.422;2024-03-23T02:51:54;8.60;99.90
5711;DHT22;61291;52.524;13.422;2024-03-23T02:54:21;8.70;99.90
5711;DHT22;61291;52.524;13.422;2024-03-23T02:56:47;8.60;99.90
5711;DHT22;61291;52.524;13.422;2024-03-23T02:59:14;8.70;99.90
5711;DHT22;61291;52.524;13.422;2024-03-23T03:01:40;8.70;99.90
5711;DHT22;61291;52.524;13.422;2024-03-23T03:04:06;8.70;99.90
5711;DHT22;61291;52.524;13.422;2024-03-23T03:06:32;8.70;99.90
5711;DHT22;61291;52.524;13.422;2024-03-23T03:08:59;8.70;99.90
5711;DHT22;61291;52.524;13.422;2024-03-23T03:11:25;8.70;99.90
5711;DHT22;61291;52.524;13.422;2024-03-23T03:13:51;8.70;99.90
5711;DHT22;61291;52.524;13.422;2024-03-23T03:16:18;8.70;99.90
5711;DHT22;61291;52.524;13.422;2024-03-23T03:18:44;8.70;99.90
5711;DHT22;61291;52.524;13.422;2024-03-23T03:21:13;8.70;99.90
5711;DHT22;61291;52.524;13.422;2024-03-23T03:23:40;8.70;99.90
5711;DHT22;61291;52.524;13.422;2024-03-23T03:26:06;8.70;99.90
5711;DHT22;61291;52.524;13.422;2024-03-23T03:28:33;8.70;99.90
5711;DHT22;61291;52.524;13.422;2024-03-23T03:30:59;8.70;99.90
5711;DHT22;61291;52.524;13.422;2024-03-23T03:33:25;8.60;99.90
5711;DHT22;61291;52.524;13.422;2024-03-23T03:35:51;8.60;99.90
5711;DHT22;61291;52.524;13.422;2024-03-23T03:38:19;8.50;99.90
5711;DHT22;61291;52.524;13.422;2024-03-23T03:40:44;8.50;99.90
5711;DHT22;61291;52.524;13.422;2024-03-23T03:43:10;8.50;99.90
5711;DHT22;61291;52.524;13.422;2024-03-23T03:45:37;8.50;99.90
5711;DHT22;61291;52.524;13.422;2024-03-23T03:48:04;8.40;99.90
5711;DHT22;61291;52.524;13.422;2024-03-23T03:50:30;8.30;99.90
5711;DHT22;61291;52.524;13.422;2024-03-23T03:52:55;8.20;99.90
5711;DHT22;61291;52.524;13.422;2024-03-23T03:55:22;8.20;99.90
5711;DHT22;61291;52.524;13.422;2024-03-23T03:57:48;8.20;99.90
5711;DHT22;61291;52.524;13.422;2024-03-23T04:00:15;8.20;99.90
5711;DHT22;61291;52.524;13.422;2024-03-23T04:02:41;8.20;99.90
5711;DHT22;61291;52.524;13.422;2024-03-23T04:05:08;8.20;99.90
5711;DHT22;61291;52.524;13.422;2024-03-23T04:07:33;8.20;99.90
5711;DHT22;61291;52.524;13.422;2024-03-23T04:10:00;8.20;99.90
5711;DHT22;61291;52.524;13.422;2024-03-23T04:12:26;8.00;99.90
5711;DHT22;61291;52.524;13.422;2024-03-23T04:14:52;7.90;99.90
5711;DHT22;61291;52.524;13.422;2024-03-23T04:17:19;7.80;99.90
5711;DHT22;61291;52.524;13.422;2024-03-23T04:19:45;7.70;99.90
5711;DHT22;61291;52.524;13.422;2024-03-23T04:22:11;7.70;99.90
5711;DHT22;61291;52.524;13.422;2024-03-23T04:24:38;7.70;99.90
5711;DHT22;61291;52.524;13.422;2024-03-23T04:27:03;7.60;99.90
5711;DHT22;61291;52.524;13.422;2024-03-23T04:29:30;7.60;99.90
5711;DHT22;61291;52.524;13.422;2024-03-23T04:31:56;7.60;99.90
5711;DHT22;61291;52.524;13.422;2024-03-23T04:34:22;7.60;99.90
5711;DHT22;61291;52.524;13.422;2024-03-23T04:36:50;7.60;99.90
5711;DHT22;61291;52.524;13.422;2024-03-23T04:39:15;7.50;99.90
5711;DHT22;61291;52.524;13.422;2024-03-23T04:41:41;7.50;99.90
5711;DHT22;61291;52.524;13.422;2024-03-23T04:44:08;7.50;99.90
5711;DHT22;61291;52.524;13.422;2024-03-23T04:46:35;7.40;99.90
5711;DHT22;61291;52.524;13.422;2024-03-23T04:49:00;7.40;99.90
5711;DHT22;61291;52.524;13.422;2024-03-23T04:51:27;7.40;99.90
5711;DHT22;61291;52.524;13.422;2024-03-23T04:53:55;7.40;99.90
5711;DHT22;61291;52.524;13.422;2024-03-23T04:56:21;7.40;99.90
5711;DHT22;61291;52.524;13.422;2024-03-23T04:58:46;7.30;99.90
5711;DHT22;61291;52.524;13.422;2024-03-23T05:01:12;7.30;99.90
5711;DHT22;61291;52.524;13.422;2024-03-23T05:03:39;7.40;99.90
5711;DHT22;61291;52.524;13.422;2024-03-23T05:06:04;7.40;99.90
5711;DHT22;61291;52.524;13.422;2024-03-23T05:08:32;7.30;99.90
5711;DHT22;61291;52.524;13.422;2024-03-23T05:10:57;7.30;99.90
5711;DHT22;61291;52.524;13.422;2024-03-23T05:13:24;7.40;99.90
5711;DHT22;61291;52.524;13.422;2024-03-23T05:15:54;7.30;99.90
5711;DHT22;61291;52.524;13.422;2024-03-23T05:18:21;7.30;99.90
5711;DHT22;61291;52.524;13.422;2024-03-23T05:20:47;7.30;99.90
5711;DHT22;61291;52.524;13.422;2024-03-23T05:23:16;7.30;99.90
5711;DHT22;61291;52.524;13.422;2024-03-23T05:25:41;7.40;99.90
5711;DHT22;61291;52.524;13.422;2024-03-23T05:28:07;7.30;99.90
5711;DHT22;61291;52.524;13.422;2024-03-23T05:30:34;7.40;99.90
5711;DHT22;61291;52.524;13.422;2024-03-23T05:33:01;7.50;99.90
5711;DHT22;61291;52.524;13.422;2024-03-23T05:35:26;7.50;99.90
5711;DHT22;61291;52.524;13.422;2024-03-23T05:37:53;7.60;99.90
5711;DHT22;61291;52.524;13.422;2024-03-23T05:40:20;7.60;99.90
5711;DHT22;61291;52.524;13.422;2024-03-23T05:42:45;7.70;99.90
5711;DHT22;61291;52.524;13.422;2024-03-23T05:45:12;7.70;99.90
5711;DHT22;61291;52.524;13.422;2024-03-23T05:47:38;7.80;99.90
5711;DHT22;61291;52.524;13.422;2024-03-23T05:50:04;7.80;99.90
5711;DHT22;61291;52.524;13.422;2024-03-23T05:52:31;7.90;99.90
5711;DHT22;61291;52.524;13.422;2024-03-23T05:54:57;7.90;99.90
5711;DHT22;61291;52.524;13.422;2024-03-23T05:57:23;8.00;99.90
5711;DHT22;61291;52.524;13.422;2024-03-23T05:59:50;8.00;99.90
5711;DHT22;61291;52.524;13.422;2024-03-23T06:02:16;7.90;99.90
5711;DHT22;61291;52.524;13.422;2024-03-23T06:05:03;8.00;99.90
5711;DHT22;61291;52.524;13.422;2024-03-23T06:07:30;8.00;99.90
5711;DHT22;61291;52.524;13.422;2024-03-23T06:09:57;8.00;99.90
5711;DHT22;61291;52.524;13.422;2024-03-23T06:12:22;8.00;99.90
5711;DHT22;61291;52.524;13.422;2024-03-23T06:14:49;7.90;99.90
5711;DHT22;61291;52.524;13.422;2024-03-23T06:17:16;8.00;99.90
5711;DHT22;61291;52.524;13.422;2024-03-23T06:19:41;8.10;99.90
5711;DHT22;61291;52.524;13.422;2024-03-23T06:22:08;8.10;99.90
5711;DHT22;61291;52.524;13.422;2024-03-23T06:24:35;8.10;99.90
5711;DHT22;61291;52.524;13.422;2024-03-23T06:27:00;8.10;99.90
5711;DHT22;61291;52.524;13.422;2024-03-23T06:29:27;7.90;99.90
5711;DHT22;61291;52.524;13.422;2024-03-23T06:31:54;7.90;99.90
5711;DHT22;61291;52.524;13.422;2024-03-23T06:34:20;8.00;99.90
5711;DHT22;61291;52.524;13.422;2024-03-23T06:36:47;8.00;99.90
5711;DHT22;61291;52.524;13.422;2024-03-23T06:39:16;8.00;99.90
5711;DHT22;61291;52.524;13.422;2024-03-23T06:41:42;8.20;99.90
5711;DHT22;61291;52.524;13.422;2024-03-23T06:44:08;8.10;99.90
5711;DHT22;61291;52.524;13.422;2024-03-23T06:46:35;8.20;99.90
5711;DHT22;61291;52.524;13.422;2024-03-23T06:49:01;8.20;99.90
5711;DHT22;61291;52.524;13.422;2024-03-23T06:51:27;8.30;99.90
5711;DHT22;61291;52.524;13.422;2024-03-23T06:53:53;8.50;99.90
5711;DHT22;61291;52.524;13.422;2024-03-23T06:56:19;8.50;99.90
5711;DHT22;61291;52.524;13.422;2024-03-23T06:58:46;8.50;99.90
5711;DHT22;61291;52.524;13.422;2024-03-23T07:01:11;8.50;99.90
5711;DHT22;61291;52.524;13.422;2024-03-23T07:03:41;8.60;99.90
5711;DHT22;61291;52.524;13.422;2024-03-23T07:06:10;8.50;99.90
5711;DHT22;61291;52.524;13.422;2024-03-23T07:08:37;8.40;99.90
5711;DHT22;61291;52.524;13.422;2024-03-23T07:11:03;8.40;99.90
5711;DHT22;61291;52.524;13.422;2024-03-23T07:13:30;8.50;99.90
5711;DHT22;61291;52.524;13.422;2024-03-23T07:15:56;8.70;99.90
5711;DHT22;61291;52.524;13.422;2024-03-23T07:18:22;8.80;99.90
5711;DHT22;61291;52.524;13.422;2024-03-23T07:20:58;8.70;99.90
5711;DHT22;61291;52.524;13.422;2024-03-23T07:23:24;8.70;99.90
5711;DHT22;61291;52.524;13.422;2024-03-23T07:26:05;8.60;99.90
5711;DHT22;61291;52.524;13.422;2024-03-23T07:28:32;8.70;99.90
5711;DHT22;61291;52.524;13.422;2024-03-23T07:31:12;8.60;99.90
5711;DHT22;61291;52.524;13.422;2024-03-23T07:33:44;8.90;99.90
5711;DHT22;61291;52.524;13.422;2024-03-23T07:36:09;9.20;99.90
5711;DHT22;61291;52.524;13.422;2024-03-23T07:38:36;9.50;99.90
5711;DHT22;61291;52.524;13.422;2024-03-23T07:41:20;9.70;99.90
5711;DHT22;61291;52.524;13.422;2024-03-23T07:43:47;9.60;99.90
5711;DHT22;61291;52.524;13.422;2024-03-23T07:46:14;9.60;99.90
5711;DHT22;61291;52.524;13.422;2024-03-23T07:48:39;9.50;99.90
5711;DHT22;61291;52.524;13.422;2024-03-23T07:51:15;9.50;99.90
5711;DHT22;61291;52.524;13.422;2024-03-23T07:53:44;9.30;99.90
5711;DHT22;61291;52.524;13.422;2024-03-23T07:56:13;9.30;99.90
5711;DHT22;61291;52.524;13.422;2024-03-23T07:58:42;9.30;99.90
5711;DHT22;61291;52.524;13.422;2024-03-23T08:01:13;9.10;99.90
5711;DHT22;61291;52.524;13.422;2024-03-23T08:03:42;9.10;99.90
5711;DHT22;61291;52.524;13.422;2024-03-23T08:06:12;8.80;99.90
5711;DHT22;61291;52.524;13.422;2024-03-23T08:08:59;8.60;99.90
5711;DHT22;61291;52.524;13.422;2024-03-23T08:11:28;8.40;99.90
5711;DHT22;61291;52.524;13.422;2024-03-23T08:19:58;8.10;99.90
5711;DHT22;61291;52.524;13.422;2024-03-23T08:22:23;8.10;99.90
5711;DHT22;61291;52.524;13.422;2024-03-23T08:24:49;8.10;99.90
5711;DHT22;61291;52.524;13.422;2024-03-23T08:27:14;8.20;99.90
5711;DHT22;61291;52.524;13.422;2024-03-23T08:29:40;8.30;99.90
5711;DHT22;61291;52.524;13.422;2024-03-23T08:32:05;8.30;99.90
5711;DHT22;61291;52.524;13.422;2024-03-23T08:34:31;8.30;99.90
5711;DHT22;61291;52.524;13.422;2024-03-23T08:36:56;8.10;99.90
5711;DHT22;61291;52.524;13.422;2024-03-23T08:39:22;8.00;99.90
5711;DHT22;61291;52.524;13.422;2024-03-23T08:41:47;8.00;99.90
5711;DHT22;61291;52.524;13.422;2024-03-23T08:44:13;7.80;99.90
5711;DHT22;61291;52.524;13.422;2024-03-23T08:46:38;7.70;99.90
5711;DHT22;61291;52.524;13.422;2024-03-23T08:49:03;7.40;99.90
5711;DHT22;61291;52.524;13.422;2024-03-23T08:51:29;7.10;99.90
5711;DHT22;61291;52.524;13.422;2024-03-23T08:53:54;7.20;99.90
5711;DHT22;61291;52.524;13.422;2024-03-23T08:56:20;6.90;99.90
5711;DHT22;61291;52.524;13.422;2024-03-23T08:58:45;7.00;99.90
5711;DHT22;61291;52.524;13.422;2024-03-23T09:01:12;7.10;99.90
5711;DHT22;61291;52.524;13.422;2024-03-23T09:03:38;7.20;99.90
5711;DHT22;61291;52.524;13.422;2024-03-23T09:06:08;7.00;99.90
5711;DHT22;61291;52.524;13.422;2024-03-23T09:08:34;6.80;99.90
5711;DHT22;61291;52.524;13.422;2024-03-23T09:11:08;6.60;99.90
5711;DHT22;61291;52.524;13.422;2024-03-23T09:13:34;6.50;99.90
5711;DHT22;61291;52.524;13.422;2024-03-23T09:16:00;6.50;99.90
5711;DHT22;61291;52.524;13.422;2024-03-23T09:18:26;6.50;99.90
5711;DHT22;61291;52.524;13.422;2024-03-23T09:20:51;6.50;99.90
5711;DHT22;61291;52.524;13.422;2024-03-23T09:23:18;6.60;99.90
5711;DHT22;61291;52.524;13.422;2024-03-23T09:25:44;6.70;99.90
5711;DHT22;61291;52.524;13.422;2024-03-23T09:28:09;6.60;99.90
5711;DHT22;61291;52.524;13.422;2024-03-23T09:30:35;6.60;99.90
5711;DHT22;61291;52.524;13.422;2024-03-23T09:33:02;6.70;99.90
5711;DHT22;61291;52.524;13.422;2024-03-23T09:35:28;6.60;99.90
5711;DHT22;61291;52.524;13.422;2024-03-23T09:37:53;6.60;99.90
5711;DHT22;61291;52.524;13.422;2024-03-23T09:40:20;6.60;99.90
5711;DHT22;61291;52.524;13.422;2024-03-23T09:42:50;6.50;99.90
5711;DHT22;61291;52.524;13.422;2024-03-23T09:45:28;6.40;99.90
5711;DHT22;61291;52.524;13.422;2024-03-23T09:47:57;6.10;99.90
5711;DHT22;61291;52.524;13.422;2024-03-23T09:50:23;6.20;99.90
5711;DHT22;61291;52.524;13.422;2024-03-23T09:52:49;6.10;99.90
5711;DHT22;61291;52.524;13.422;2024-03-23T09:55:14;6.10;99.90
5711;DHT22;61291;52.524;13.422;2024-03-23T09:57:41;6.20;99.90
5711;DHT22;61291;52.524;13.422;2024-03-23T10:00:06;6.20;99.90
5711;DHT22;61291;52.524;13.422;2024-03-23T10:02:34;6.00;99.90
5711;DHT22;61291;52.524;13.422;2024-03-23T10:05:00;6.10;99.90
5711;DHT22;61291;52.524;13.422;2024-03-23T10:07:25;6.10;99.90
5711;DHT22;61291;52.524;13.422;2024-03-23T10:09:54;6.00;99.90
5711;DHT22;61291;52.524;13.422;2024-03-23T10:12:20;5.80;99.90
5711;DHT22;61291;52.524;13.422;2024-03-23T10:14:46;5.80;99.90
5711;DHT22;61291;52.524;13.422;2024-03-23T10:17:18;5.80;99.90
5711;DHT22;61291;52.524;13.422;2024-03-23T10:19:45;5.80;99.90
5711;DHT22;61291;52.524;13.422;2024-03-23T10:22:13;5.80;99.90
5711;DHT22;61291;52.524;13.422;2024-03-23T10:24:39;5.90;99.90
5711;DHT22;61291;52.524;13.422;2024-03-23T10:27:05;5.80;99.90
5711;DHT22;61291;52.524;13.422;2024-03-23T10:29:30;5.90;99.90
5711;DHT22;61291;52.524;13.422;2024-03-23T10:32:12;5.90;99.90
5711;DHT22;61291;52.524;13.422;2024-03-23T10:34:38;5.90;99.90
5711;DHT22;61291;52.524;13.422;2024-03-23T10:37:05;6.00;99.90
5711;DHT22;61291;52.524;13.422;2024-03-23T10:39:33;6.20;99.90
5711;DHT22;61291;52.524;13.422;2024-03-23T10:42:04;6.30;99.90
5711;DHT22;61291;52.524;13.422;2024-03-23T10:44:30;6.30;99.90
5711;DHT22;61291;52.524;13.422;2024-03-23T10:46:58;6.20;99.90
5711;DHT22;61291;52.524;13.422;2024-03-23T10:49:35;6.30;99.90
5711;DHT22;61291;52.524;13.422;2024-03-23T10:52:03;6.30;99.90
5711;DHT22;61291;52.524;13.422;2024-03-23T10:54:30;6.60;99.90
5711;DHT22;61291;52.524;13.422;2024-03-23T10:57:03;6.70;99.90
5711;DHT22;61291;52.524;13.422;2024-03-23T10:59:31;6.70;99.90
5711;DHT22;61291;52.524;13.422;2024-03-23T11:01:58;6.80;99.90
5711;DHT22;61291;52.524;13.422;2024-03-23T11:04:34;6.90;99.90
5711;DHT22;61291;52.524;13.422;2024-03-23T11:07:03;7.10;99.90
5711;DHT22;61291;52.524;13.422;2024-03-23T11:09:45;7.40;99.90
5711;DHT22;61291;52.524;13.422;2024-03-23T11:14:43;7.80;99.90
5711;DHT22;61291;52.524;13.422;2024-03-23T11:17:09;7.90;99.90
5711;DHT22;61291;52.524;13.422;2024-03-23T11:19:38;8.10;99.90
5711;DHT22;61291;52.524;13.422;2024-03-23T11:22:04;8.20;99.90
5711;DHT22;61291;52.524;13.422;2024-03-23T11:24:31;8.30;99.90
5711;DHT22;61291;52.524;13.422;2024-03-23T11:26:56;8.30;99.90
5711;DHT22;61291;52.524;13.422;2024-03-23T11:29:26;8.70;99.90
5711;DHT22;61291;52.524;13.422;2024-03-23T11:31:52;8.90;99.90
5711;DHT22;61291;52.524;13.422;2024-03-23T11:34:22;9.10;99.90
5711;DHT22;61291;52.524;13.422;2024-03-23T11:36:47;8.80;99.90
5711;DHT22;61291;52.524;13.422;2024-03-23T11:39:14;8.80;99.90
5711;DHT22;61291;52.524;13.422;2024-03-23T11:41:49;9.10;99.90
5711;DHT22;61291;52.524;13.422;2024-03-23T11:44:18;9.50;99.90
5711;DHT22;61291;52.524;13.422;2024-03-23T11:46:44;9.50;99.90
5711;DHT22;61291;52.524;13.422;2024-03-23T11:51:48;10.30;99.90
5711;DHT22;61291;52.524;13.422;2024-03-23T11:54:14;10.80;99.90
5711;DHT22;61291;52.524;13.422;2024-03-23T11:56:40;11.20;99.90
5711;DHT22;61291;52.524;13.422;2024-03-23T11:59:06;11.60;99.90
5711;DHT22;61291;52.524;13.422;2024-03-23T12:01:32;11.50;99.90
5711;DHT22;61291;52.524;13.422;2024-03-23T12:03:58;11.60;99.90
5711;DHT22;61291;52.524;13.422;2024-03-23T12:06:23;11.70;99.90
5711;DHT22;61291;52.524;13.422;2024-03-23T12:08:49;11.60;99.90
5711;DHT22;61291;52.524;13.422;2024-03-23T12:11:18;11.40;99.90
5711;DHT22;61291;52.524;13.422;2024-03-23T12:13:45;11.10;99.90
5711;DHT22;61291;52.524;13.422;2024-03-23T12:16:20;10.90;99.90
5711;DHT22;61291;52.524;13.422;2024-03-23T12:18:47;10.90;99.90
5711;DHT22;61291;52.524;13.422;2024-03-23T12:21:13;11.00;99.90
5711;DHT22;61291;52.524;13.422;2024-03-23T12:23:39;10.80;99.90
5711;DHT22;61291;52.524;13.422;2024-03-23T12:26:05;10.90;99.90
5711;DHT22;61291;52.524;13.422;2024-03-23T12:28:32;10.70;99.90
5711;DHT22;61291;52.524;13.422;2024-03-23T12:30:57;10.70;99.90
5711;DHT22;61291;52.524;13.422;2024-03-23T12:33:23;10.90;99.90
5711;DHT22;61291;52.524;13.422;2024-03-23T12:35:49;11.20;99.90
5711;DHT22;61291;52.524;13.422;2024-03-23T12:38:15;11.80;99.90
5711;DHT22;61291;52.524;13.422;2024-03-23T12:40:40;12.20;99.90
5711;DHT22;61291;52.524;13.422;2024-03-23T12:43:06;12.80;99.90
5711;DHT22;61291;52.524;13.422;2024-03-23T12:45:33;13.30;99.90
5711;DHT22;61291;52.524;13.422;2024-03-23T12:47:58;13.70;99.90
5711;DHT22;61291;52.524;13.422;2024-03-23T12:50:23;14.10;99.90
5711;DHT22;61291;52.524;13.422;2024-03-23T12:52:49;14.40;99.90
5711;DHT22;61291;52.524;13.422;2024-03-23T12:55:14;14.50;99.90
5711;DHT22;61291;52.524;13.422;2024-03-23T12:57:40;14.50;99.90
5711;DHT22;61291;52.524;13.422;2024-03-23T13:00:08;14.50;99.90
5711;DHT22;61291;52.524;13.422;2024-03-23T13:02:38;14.40;99.90
5711;DHT22;61291;52.524;13.422;2024-03-23T13:05:05;14.50;99.90
5711;DHT22;61291;52.524;13.422;2024-03-23T13:07:30;14.50;99.90
5711;DHT22;61291;52.524;13.422;2024-03-23T13:09:56;14.70;99.90
5711;DHT22;61291;52.524;13.422;2024-03-23T13:12:22;14.50;99.90
5711;DHT22;61291;52.524;13.422;2024-03-23T13:14:48;14.40;99.90
5711;DHT22;61291;52.524;13.422;2024-03-23T13:17:14;14.20;99.90
5711;DHT22;61291;52.524;13.422;2024-03-23T13:19:40;13.90;99.90
5711;DHT22;61291;52.524;13.422;2024-03-23T13:22:06;13.90;99.90
5711;DHT22;61291;52.524;13.422;2024-03-23T13:24:31;13.90;99.30
5711;DHT22;61291;52.524;13.422;2024-03-23T13:26:57;13.90;99.80
5711;DHT22;61291;52.524;13.422;2024-03-23T13:29:24;13.90;99.40
5711;DHT22;61291;52.524;13.422;2024-03-23T13:31:51;14.00;99.30
5711;DHT22;61291;52.524;13.422;2024-03-23T13:34:17;14.00;99.10
5711;DHT22;61291;52.524;13.422;2024-03-23T13:36:46;13.60;98.30
5711;DHT22;61291;52.524;13.422;2024-03-23T13:39:12;13.30;98.40
5711;DHT22;61291;52.524;13.422;2024-03-23T13:41:42;12.80;97.40
5711;DHT22;61291;52.524;13.422;2024-03-23T13:44:09;12.40;97.90
5711;DHT22;61291;52.524;13.422;2024-03-23T13:46:39;12.10;98.10
5711;DHT22;61291;52.524;13.422;2024-03-23T13:49:05;12.00;98.40
5711;DHT22;61291;52.524;13.422;2024-03-23T13:51:31;11.90;98.40
5711;DHT22;61291;52.524;13.422;2024-03-23T13:53:57;11.90;98.90
5711;DHT22;61291;52.524;13.422;2024-03-23T13:56:26;11.90;99.20
5711;DHT22;61291;52.524;13.422;2024-03-23T13:58:51;12.10;99.40
5711;DHT22;61291;52.524;13.422;2024-03-23T14:01:17;12.40;99.50
5711;DHT22;61291;52.524;13.422;2024-03-23T14:03:43;12.80;99.80
5711;DHT22;61291;52.524;13.422;2024-03-23T14:06:09;13.10;99.30
5711;DHT22;61291;52.524;13.422;2024-03-23T14:08:35;13.30;99.20
5711;DHT22;61291;52.524;13.422;2024-03-23T14:11:04;13.40;99.10
5711;DHT22;61291;52.524;13.422;2024-03-23T14:13:30;13.10;98.30
5711;DHT22;61291;52.524;13.422;2024-03-23T14:15:56;12.80;98.10
5711;DHT22;61291;52.524;13.422;2024-03-23T14:18:22;13.00;98.60
5711;DHT22;61291;52.524;13.422;2024-03-23T14:20:48;13.50;98.30
5711;DHT22;61291;52.524;13.422;2024-03-23T14:23:14;13.70;97.90
5711;DHT22;61291;52.524;13.422;2024-03-23T14:25:40;13.70;97.90
5711;DHT22;61291;52.524;13.422;2024-03-23T14:28:05;13.60;97.30
5711;DHT22;61291;52.524;13.422;2024-03-23T14:30:31;13.30;97.20
5711;DHT22;61291;52.524;13.422;2024-03-23T14:32:57;12.80;96.90
5711;DHT22;61291;52.524;13.422;2024-03-23T14:35:22;12.50;96.70
5711;DHT22;61291;52.524;13.422;2024-03-23T14:37:49;12.20;96.80
5711;DHT22;61291;52.524;13.422;2024-03-23T14:40:14;12.10;97.00
5711;DHT22;61291;52.524;13.422;2024-03-23T14:42:40;12.00;96.90
5711;DHT22;61291;52.524;13.422;2024-03-23T14:45:06;12.00;97.00
5711;DHT22;61291;52.524;13.422;2024-03-23T14:47:32;11.90;96.80
5711;DHT22;61291;52.524;13.422;2024-03-23T14:49:58;11.60;96.50
5711;DHT22;61291;52.524;13.422;2024-03-23T14:52:24;11.30;96.10
5711;DHT22;61291;52.524;13.422;2024-03-23T14:54:49;10.80;95.50
5711;DHT22;61291;52.524;13.422;2024-03-23T14:57:15;10.20;95.40
5711;DHT22;61291;52.524;13.422;2024-03-23T14:59:40;9.50;98.10
5711;DHT22;61291;52.524;13.422;2024-03-23T15:02:07;9.10;97.60
5711;DHT22;61291;52.524;13.422;2024-03-23T15:04:32;8.40;99.90
5711;DHT22;61291;52.524;13.422;2024-03-23T15:06:58;7.80;99.90
5711;DHT22;61291;52.524;13.422;2024-03-23T15:09:24;7.80;99.90
5711;DHT22;61291;52.524;13.422;2024-03-23T15:11:49;8.00;99.90
5711;DHT22;61291;52.524;13.422;2024-03-23T15:14:14;8.30;99.90
5711;DHT22;61291;52.524;13.422;2024-03-23T15:16:40;8.60;99.90
5711;DHT22;61291;52.524;13.422;2024-03-23T15:19:07;8.80;99.90
5711;DHT22;61291;52.524;13.422;2024-03-23T15:21:33;8.70;99.90
5711;DHT22;61291;52.524;13.422;2024-03-23T15:23:59;8.50;99.90
5711;DHT22;61291;52.524;13.422;2024-03-23T15:26:24;8.20;99.90
5711;DHT22;61291;52.524;13.422;2024-03-23T15:28:50;8.00;99.90
5711;DHT22;61291;52.524;13.422;2024-03-23T15:31:25;7.90;99.90
5711;DHT22;61291;52.524;13.422;2024-03-23T15:33:51;7.80;99.90
5711;DHT22;61291;52.524;13.422;2024-03-23T15:36:17;7.60;99.90
5711;DHT22;61291;52.524;13.422;2024-03-23T15:38:43;7.50;99.90
5711;DHT22;61291;52.524;13.422;2024-03-23T15:41:09;7.40;99.90
5711;DHT22;61291;52.524;13.422;2024-03-23T15:43:34;7.40;99.90
5711;DHT22;61291;52.524;13.422;2024-03-23T15:46:01;7.40;99.90
5711;DHT22;61291;52.524;13.422;2024-03-23T15:48:28;7.40;99.90
5711;DHT22;61291;52.524;13.422;2024-03-23T15:50:54;7.30;99.90
5711;DHT22;61291;52.524;13.422;2024-03-23T15:53:21;7.40;99.90
5711;DHT22;61291;52.524;13.422;2024-03-23T15:56:01;7.40;99.90
5711;DHT22;61291;52.524;13.422;2024-03-23T15:58:27;7.40;99.90
5711;DHT22;61291;52.524;13.422;2024-03-23T16:03:22;7.40;99.90
5711;DHT22;61291;52.524;13.422;2024-03-23T16:05:55;7.40;99.90
5711;DHT22;61291;52.524;13.422;2024-03-23T16:08:21;7.30;99.90
5711;DHT22;61291;52.524;13.422;2024-03-23T16:10:47;7.30;99.90
5711;DHT22;61291;52.524;13.422;2024-03-23T16:13:12;7.30;99.90
5711;DHT22;61291;52.524;13.422;2024-03-23T16:15:37;7.20;99.90
5711;DHT22;61291;52.524;13.422;2024-03-23T16:18:03;7.20;99.90
5711;DHT22;61291;52.524;13.422;2024-03-23T16:20:28;7.20;99.90
5711;DHT22;61291;52.524;13.422;2024-03-23T16:22:54;7.10;99.90
5711;DHT22;61291;52.524;13.422;2024-03-23T16:25:20;7.10;99.90
5711;DHT22;61291;52.524;13.422;2024-03-23T16:27:46;7.00;99.90
5711;DHT22;61291;52.524;13.422;2024-03-23T16:30:12;7.00;99.90
5711;DHT22;61291;52.524;13.422;2024-03-23T16:32:38;7.00;99.90
5711;DHT22;61291;52.524;13.422;2024-03-23T16:35:04;6.80;99.90
5711;DHT22;61291;52.524;13.422;2024-03-23T16:37:30;6.80;99.90
5711;DHT22;61291;52.524;13.422;2024-03-23T16:39:55;6.80;99.90
5711;DHT22;61291;52.524;13.422;2024-03-23T16:42:21;6.70;99.90
5711;DHT22;61291;52.524;13.422;2024-03-23T16:44:47;6.70;99.90
5711;DHT22;61291;52.524;13.422;2024-03-23T16:47:12;6.70;99.90
5711;DHT22;61291;52.524;13.422;2024-03-23T16:49:37;6.60;99.90